»·PEaware :: N365BA KSAN-KLAS

N365BA :: KSAN-KLAS

FLIGHT INFORMATION

Flight Status: Arrived
Operator: Privately registered:
United States
More flights under this callsign
Pilot: Marc E. (20294)
Aircraft: BEECH AIRCRAFT PREMIER
(PRM1)
More flights by this aircraft type
Origin: KSAN San Diego Intl-Lindbergh
United States
Destination: KLAS McCarran Intl
United States
More flights between these airports :: More routes between these airports
Route: +PADRZ2 CHKNN SEBBY YELAH MISEN KEPEC6
File this flight plan on PilotEdge
Remarks: RMK / SIMBRIEF
Altitude:
(Current/Filed)
39,000ft
Speed:
(Current/Filed)
341kts
Departed: 17-Sep-20 09:11 PM
Arrived: 17-Sep-20 10:10 PM
Distance/Time
Traveled:
224nm/0:59
Distance/Time
To Go:
Arrived

Flight Plot

Page will automatically refresh every two minutes.

Flight plan parsing failed; only flown route is shown


Map Options




Map Legend


Flown Route
Filed Route
Departure Airport
Arrival Airport
Navaid (VOR, NDB)
Fix

Horizontal Profiles

Position Reports

Time Latitude Longitude Heading Altitude Ground
Speed
17-Sep-20 20:51 32.733568 -117.178857 17 24ft 0kts
17-Sep-20 20:52 32.733568 -117.178857 17 24ft 0kts
17-Sep-20 20:53 32.733568 -117.178857 17 24ft 0kts
17-Sep-20 20:54 32.733568 -117.178857 17 24ft 0kts
17-Sep-20 20:55 32.733568 -117.178857 17 24ft 0kts
17-Sep-20 20:56 32.733568 -117.178857 17 24ft 0kts
17-Sep-20 20:57 32.733568 -117.178857 17 24ft 0kts
17-Sep-20 20:58 32.733568 -117.178857 17 24ft 0kts
17-Sep-20 20:59 32.733568 -117.178857 17 24ft 0kts
17-Sep-20 21:00 32.733568 -117.178857 17 24ft 0kts
17-Sep-20 21:01 32.733568 -117.178857 17 24ft 0kts
17-Sep-20 21:02 32.733568 -117.178857 17 24ft 0kts
17-Sep-20 21:03 32.733568 -117.178857 17 24ft 0kts
17-Sep-20 21:04 32.733635 -117.178948 281 24ft 4kts
17-Sep-20 21:05 32.733506 -117.179539 196 24ft 0kts
17-Sep-20 21:06 32.731923 -117.178277 104 24ft 13kts
17-Sep-20 21:07 32.730987 -117.175585 144 24ft 7kts
17-Sep-20 21:08 32.730921 -117.175529 144 24ft 0kts
17-Sep-20 21:09 32.730858 -117.175475 144 24ft 4kts
17-Sep-20 21:10 32.733464 -117.189512 286 71ft 151kts
17-Sep-20 21:11 32.755539 -117.239706 305 3392ft 181kts
17-Sep-20 21:12 32.784581 -117.291401 303 6437ft 218kts
17-Sep-20 21:13 32.820142 -117.351386 308 9766ft 229kts
17-Sep-20 21:14 32.860164 -117.412527 307 12589ft 249kts
17-Sep-20 21:15 32.905312 -117.482611 307 14981ft 273kts
17-Sep-20 21:16 32.952207 -117.555620 307 17397ft 284kts
17-Sep-20 21:17 33.000884 -117.631582 307 19577ft 294kts
17-Sep-20 21:18 33.051117 -117.710096 307 21543ft 303kts
17-Sep-20 21:19 33.113182 -117.779939 319 23325ft 312kts
17-Sep-20 21:20 33.180188 -117.848171 319 24950ft 321kts
17-Sep-20 21:21 33.248902 -117.915927 317 26475ft 326kts
17-Sep-20 21:22 33.320689 -117.984210 329 27780ft 337kts
17-Sep-20 21:23 33.417199 -117.982856 1 28916ft 357kts
17-Sep-20 21:24 33.516570 -117.970471 1 30017ft 363kts
17-Sep-20 21:25 33.608326 -117.921730 36 30931ft 384kts
17-Sep-20 21:26 33.689502 -117.841535 36 32717ft 362kts
17-Sep-20 21:27 33.768368 -117.763093 36 33462ft 374kts
17-Sep-20 21:28 33.848919 -117.682650 36 34317ft 379kts
17-Sep-20 21:29 33.930528 -117.600939 36 34982ft 389kts
17-Sep-20 21:30 34.016297 -117.514880 36 34991ft 415kts
17-Sep-20 21:31 34.106975 -117.423563 36 35002ft 436kts
17-Sep-20 21:32 34.201485 -117.328106 37 35062ft 451kts
17-Sep-20 21:34 34.298209 -117.230095 37 35098ft 455kts
17-Sep-20 21:35 34.394608 -117.132115 37 35097ft 451kts
17-Sep-20 21:36 34.489872 -117.035015 37 35115ft 443kts
17-Sep-20 21:37 34.583408 -116.939407 37 35139ft 438kts
17-Sep-20 21:38 34.673451 -116.847001 36 33981ft 407kts
17-Sep-20 21:39 34.755532 -116.762570 37 31965ft 369kts
17-Sep-20 21:40 34.829567 -116.684879 39 29780ft 342kts
17-Sep-20 21:41 34.899969 -116.610655 38 27382ft 326kts
17-Sep-20 21:42 34.967548 -116.541472 38 25117ft 310kts
17-Sep-20 21:43 35.031477 -116.476163 38 24025ft 279kts
17-Sep-20 21:44 35.088680 -116.417567 39 24035ft 273kts
17-Sep-20 21:45 35.146793 -116.348016 45 24040ft 321kts
17-Sep-20 21:46 35.215127 -116.262484 45 24033ft 378kts
17-Sep-20 21:47 35.292317 -116.165448 45 24031ft 414kts
17-Sep-20 21:48 35.372233 -116.064691 45 23211ft 385kts
17-Sep-20 21:49 35.442686 -115.975676 44 21230ft 356kts
17-Sep-20 21:50 35.510209 -115.890132 44 19227ft 343kts
17-Sep-20 21:50 35.564667 -115.820968 44 17556ft 334kts
17-Sep-20 21:51 35.624869 -115.744348 45 14722ft 297kts
17-Sep-20 21:53 35.690974 -115.660034 47 13040ft 292kts
17-Sep-20 21:53 35.737786 -115.600377 44 12273ft 294kts
17-Sep-20 21:54 35.813916 -115.571622 11 11046ft 285kts
17-Sep-20 21:55 35.878203 -115.518549 39 11032ft 283kts
17-Sep-20 21:56 35.941486 -115.458954 38 11017ft 287kts
17-Sep-20 21:57 36.004991 -115.398958 44 10999ft 288kts
17-Sep-20 21:58 36.026466 -115.309689 97 9997ft 279kts
17-Sep-20 21:59 36.019577 -115.215014 98 9006ft 272kts
17-Sep-20 22:00 36.013026 -115.121461 98 8413ft 273kts
17-Sep-20 22:01 36.006905 -115.029928 98 6920ft 263kts
17-Sep-20 22:02 36.028749 -114.953980 22 6049ft 269kts
17-Sep-20 22:03 36.099315 -114.920890 12 6023ft 272kts
17-Sep-20 22:04 36.161315 -114.961579 311 6029ft 264kts
17-Sep-20 22:05 36.181808 -115.044946 277 5597ft 253kts
17-Sep-20 22:06 36.172095 -115.112243 220 4526ft 189kts
17-Sep-20 22:07 36.126628 -115.141001 205 2915ft 181kts
17-Sep-20 22:08 36.083938 -115.165613 199 2151ft 102kts
17-Sep-20 22:09 36.078056 -115.169749 260 2179ft 3kts
17-Sep-20 22:10 36.080652 -115.170567 135 2172ft 2kts
17-Sep-20 22:11 36.080651 -115.170566 135 2172ft 0kts

Navigation Log

Ident Type
Flight plan parsing failed, navigation log unavailable